createdAt,value
2022-10-08T00:02:05.030Z,44
2022-10-08T00:04:36.234Z,52
2022-10-08T00:07:07.329Z,44
2022-10-08T00:09:38.428Z,44
2022-10-08T00:12:08.137Z,42
2022-10-08T00:14:38.914Z,34
2022-10-08T00:17:09.649Z,36
2022-10-08T00:19:40.646Z,33
2022-10-08T00:22:11.662Z,32
2022-10-08T00:24:43.575Z,32
2022-10-08T00:27:15.044Z,29
2022-10-08T00:29:46.780Z,33
2022-10-08T00:32:18.415Z,32
2022-10-08T00:34:49.796Z,28
2022-10-08T00:37:21.123Z,28
2022-10-08T00:39:52.326Z,28
2022-10-08T00:42:23.560Z,28
2022-10-08T00:44:54.948Z,32
2022-10-08T00:47:25.888Z,32
2022-10-08T00:49:57.407Z,31
2022-10-08T00:52:28.359Z,29
2022-10-08T00:54:59.656Z,30
2022-10-08T00:57:30.926Z,32
2022-10-08T01:00:00.603Z,28
2022-10-08T01:02:30.147Z,29
2022-10-08T01:05:01.088Z,29
2022-10-08T01:07:32.004Z,29
2022-10-08T01:10:02.563Z,32
2022-10-08T01:12:32.179Z,32
2022-10-08T01:15:02.980Z,33
2022-10-08T01:17:33.875Z,28
2022-10-08T01:20:05.141Z,28
2022-10-08T01:22:36.164Z,28
2022-10-08T01:25:09.034Z,24
2022-10-08T01:27:41.221Z,30
2022-10-08T01:30:10.625Z,29
2022-10-08T01:32:42.051Z,23
2022-10-08T01:35:13.135Z,24
2022-10-08T01:37:45.029Z,27
2022-10-08T01:40:16.089Z,21
2022-10-08T01:42:47.227Z,24
2022-10-08T01:45:17.854Z,21
2022-10-08T01:47:50.979Z,21
2022-10-08T01:50:22.190Z,21
2022-10-08T01:52:53.891Z,21
2022-10-08T01:55:25.034Z,26
2022-10-08T01:57:55.817Z,24
2022-10-08T02:00:27.368Z,23
2022-10-08T02:02:59.859Z,24
2022-10-08T02:05:30.811Z,23
2022-10-08T02:08:01.665Z,24
2022-10-08T02:10:32.740Z,28
2022-10-08T02:13:04.427Z,17
2022-10-08T02:15:33.925Z,25
2022-10-08T02:18:04.674Z,24
2022-10-08T02:20:36.369Z,20
2022-10-08T02:23:07.531Z,22
2022-10-08T02:25:38.120Z,20
2022-10-08T02:28:07.236Z,20
2022-10-08T02:30:37.965Z,24
2022-10-08T02:33:10.125Z,19
2022-10-08T02:35:41.159Z,18
2022-10-08T02:38:11.892Z,20
2022-10-08T02:40:42.299Z,24
2022-10-08T02:43:14.340Z,20
2022-10-08T02:45:45.420Z,16
2022-10-08T02:48:18.508Z,28
2022-10-08T02:50:48.872Z,24
2022-10-08T02:53:19.768Z,24
2022-10-08T02:55:50.056Z,22
2022-10-08T02:58:20.974Z,26
2022-10-08T03:00:53.930Z,22
2022-10-08T03:03:24.980Z,20
2022-10-08T03:08:48.029Z,24
2022-10-08T03:11:19.251Z,24
2022-10-08T03:13:51.238Z,24
2022-10-08T03:16:22.123Z,20
2022-10-08T03:18:51.249Z,22
2022-10-08T03:21:22.144Z,19
2022-10-08T03:23:53.294Z,20
2022-10-08T03:26:24.209Z,23
2022-10-08T03:28:56.526Z,20
2022-10-08T03:31:28.026Z,24
2022-10-08T03:33:57.278Z,20
2022-10-08T03:36:30.384Z,20
2022-10-08T03:39:02.922Z,20
2022-10-08T03:41:34.111Z,20
2022-10-08T03:44:06.419Z,20
2022-10-08T03:46:37.431Z,20
2022-10-08T03:49:09.029Z,19
2022-10-08T03:51:40.120Z,19
2022-10-08T03:54:10.404Z,20
2022-10-08T03:56:41.267Z,23
2022-10-08T03:59:12.929Z,19
2022-10-08T04:01:43.945Z,12
2022-10-08T04:04:15.849Z,20
2022-10-08T04:06:48.331Z,15
2022-10-08T04:09:19.169Z,19
2022-10-08T04:11:50.395Z,20
2022-10-08T04:14:21.152Z,16
2022-10-08T04:16:51.903Z,16
2022-10-08T04:19:24.029Z,15
2022-10-08T04:21:55.504Z,20
2022-10-08T04:24:26.811Z,19
2022-10-08T04:26:58.109Z,20
2022-10-08T04:29:29.333Z,19
2022-10-08T04:32:00.630Z,20
2022-10-08T04:34:30.378Z,16
2022-10-08T04:37:02.011Z,16
2022-10-08T04:39:32.601Z,20
2022-10-08T04:42:03.246Z,20
2022-10-08T04:44:34.307Z,22
2022-10-08T04:47:06.237Z,16
2022-10-08T04:49:38.233Z,15
2022-10-08T04:52:09.641Z,19
2022-10-08T04:54:40.537Z,20
2022-10-08T04:57:12.219Z,16
2022-10-08T04:59:59.630Z,16
2022-10-08T05:02:16.493Z,20
2022-10-08T05:04:47.776Z,20
2022-10-08T05:07:19.219Z,20
2022-10-08T05:09:50.902Z,20
2022-10-08T05:12:21.953Z,20
2022-10-08T05:14:52.776Z,16
2022-10-08T05:17:23.723Z,16
2022-10-08T05:19:55.641Z,16
2022-10-08T05:22:26.148Z,23
2022-10-08T05:24:57.845Z,15
2022-10-08T05:27:28.866Z,16
2022-10-08T05:29:59.552Z,16
2022-10-08T05:32:30.407Z,22
2022-10-08T05:35:05.209Z,12
2022-10-08T05:37:36.251Z,16
2022-10-08T05:40:07.747Z,18
2022-10-08T05:42:38.978Z,16
2022-10-08T05:45:11.120Z,20
2022-10-08T05:47:42.838Z,16
2022-10-08T05:50:13.918Z,20
2022-10-08T05:52:45.213Z,17
2022-10-08T05:55:16.379Z,20
2022-10-08T05:57:47.403Z,16
2022-10-08T06:00:18.723Z,20
2022-10-08T06:02:50.851Z,21
2022-10-08T06:05:19.634Z,25
2022-10-08T06:07:52.382Z,16
2022-10-08T06:10:23.637Z,16
2022-10-08T06:12:54.519Z,20
2022-10-08T06:15:25.515Z,20
2022-10-08T06:17:56.514Z,16
2022-10-08T06:20:31.742Z,16
2022-10-08T06:23:00.421Z,12
2022-10-08T06:25:30.850Z,12
2022-10-08T06:28:02.329Z,16
2022-10-08T06:30:33.561Z,16
2022-10-08T06:33:04.303Z,16
2022-10-08T06:35:35.157Z,16
2022-10-08T06:38:06.653Z,16
2022-10-08T06:40:37.428Z,16
2022-10-08T06:43:08.572Z,17
2022-10-08T06:45:39.278Z,20
2022-10-08T06:48:10.089Z,16
2022-10-08T06:50:39.708Z,18
2022-10-08T06:53:13.011Z,16
2022-10-08T06:55:44.073Z,15
2022-10-08T06:58:15.387Z,16
2022-10-08T07:00:46.257Z,16
2022-10-08T07:03:20.367Z,16
2022-10-08T07:05:51.328Z,16
2022-10-08T07:08:22.907Z,20
2022-10-08T07:10:53.537Z,13
2022-10-08T07:13:24.326Z,16
2022-10-08T07:15:56.967Z,22
2022-10-08T07:18:28.282Z,15
2022-10-08T07:20:58.364Z,17
2022-10-08T07:23:29.160Z,20
2022-10-08T07:26:00.070Z,20
2022-10-08T07:28:30.960Z,22
2022-10-08T07:31:01.497Z,20
2022-10-08T07:33:32.017Z,17
2022-10-08T07:36:03.011Z,19
2022-10-08T07:38:36.146Z,14
2022-10-08T07:41:07.155Z,16
2022-10-08T07:43:38.026Z,16
2022-10-08T07:46:10.514Z,16
2022-10-08T07:48:41.324Z,12
2022-10-08T07:51:11.937Z,16
2022-10-08T07:53:43.265Z,27
2022-10-08T07:56:14.729Z,18
2022-10-08T07:58:45.299Z,17
2022-10-08T08:01:17.610Z,15
2022-10-08T08:03:48.657Z,16
2022-10-08T08:06:20.382Z,17
2022-10-08T08:08:51.644Z,16
2022-10-08T08:11:21.558Z,16
2022-10-08T08:13:55.248Z,12
2022-10-08T08:16:26.352Z,16
2022-10-08T08:18:57.321Z,16
2022-10-08T08:21:28.254Z,17
2022-10-08T08:23:58.985Z,20
2022-10-08T08:26:30.591Z,17
2022-10-08T08:29:01.853Z,28
2022-10-08T08:31:33.289Z,22
2022-10-08T08:34:04.374Z,20
2022-10-08T08:36:35.319Z,24
2022-10-08T08:39:10.143Z,17
2022-10-08T08:41:41.077Z,18
2022-10-08T08:44:13.231Z,20
2022-10-08T08:46:44.355Z,19
2022-10-08T08:49:15.917Z,18
2022-10-08T08:51:47.467Z,19
2022-10-08T08:54:18.613Z,17
2022-10-08T08:56:49.519Z,20
2022-10-08T08:59:21.110Z,12
2022-10-08T09:01:52.321Z,16
2022-10-08T09:04:22.943Z,16
2022-10-08T09:06:53.496Z,17
2022-10-08T09:09:25.847Z,14
2022-10-08T09:11:58.192Z,20
2022-10-08T09:14:28.736Z,20
2022-10-08T09:17:00.073Z,22
2022-10-08T09:19:31.862Z,12
2022-10-08T09:22:01.435Z,16
2022-10-08T09:24:32.879Z,12
2022-10-08T09:27:04.882Z,16
2022-10-08T09:29:35.221Z,20
2022-10-08T09:32:06.207Z,24
2022-10-08T09:34:39.765Z,20
2022-10-08T09:37:11.499Z,16
2022-10-08T09:39:42.969Z,16
2022-10-08T09:42:15.015Z,16
2022-10-08T09:44:53.616Z,16
2022-10-08T09:47:23.748Z,15
2022-10-08T09:49:55.737Z,16
2022-10-08T09:52:32.373Z,16
2022-10-08T09:55:03.492Z,16
2022-10-08T09:57:32.746Z,16
2022-10-08T10:00:04.930Z,12
2022-10-08T10:02:34.158Z,15
2022-10-08T10:05:05.249Z,12
2022-10-08T10:07:36.355Z,16
2022-10-08T10:10:07.271Z,16
2022-10-08T10:12:38.313Z,12
2022-10-08T10:15:08.068Z,13
2022-10-08T10:17:38.551Z,16
2022-10-08T10:20:08.019Z,16
2022-10-08T10:22:38.911Z,20
2022-10-08T10:25:09.818Z,15
2022-10-08T10:27:41.662Z,15
2022-10-08T10:30:13.032Z,16
2022-10-08T10:32:44.219Z,15
2022-10-08T10:35:14.960Z,16
2022-10-08T10:37:45.512Z,16
2022-10-08T10:40:17.670Z,16
2022-10-08T10:42:50.133Z,25
2022-10-08T10:45:20.896Z,16
2022-10-08T10:47:49.981Z,15
2022-10-08T10:50:21.226Z,16
2022-10-08T10:52:52.327Z,15
2022-10-08T10:55:21.593Z,14
2022-10-08T10:57:53.629Z,28
2022-10-08T11:00:25.925Z,20
2022-10-08T11:02:56.641Z,16
2022-10-08T11:05:28.333Z,16
2022-10-08T11:07:59.415Z,18
2022-10-08T11:10:30.367Z,16
2022-10-08T11:13:00.955Z,28
2022-10-08T11:15:31.148Z,20
2022-10-08T11:18:01.709Z,28
2022-10-08T11:20:31.227Z,28
2022-10-08T11:23:02.943Z,24
2022-10-08T11:25:44.831Z,28
2022-10-08T11:28:06.480Z,28
2022-10-08T11:30:37.673Z,28
2022-10-08T11:33:08.597Z,28
2022-10-08T11:35:39.391Z,25
2022-10-08T11:38:10.880Z,33
2022-10-08T11:40:42.068Z,32
2022-10-08T11:43:13.491Z,34
2022-10-08T11:45:44.359Z,32
2022-10-08T11:48:14.785Z,33
2022-10-08T11:50:45.637Z,24
2022-10-08T11:53:18.340Z,28
2022-10-08T11:55:49.501Z,28
2022-10-08T11:58:20.116Z,29
2022-10-08T12:00:51.551Z,32
2022-10-08T12:03:22.205Z,16
2022-10-08T12:05:52.521Z,16
2022-10-08T12:08:23.784Z,24
2022-10-08T12:10:54.095Z,16
2022-10-08T12:13:24.807Z,16
2022-10-08T12:15:55.588Z,18
2022-10-08T12:18:26.865Z,21
2022-10-08T12:20:58.092Z,20
2022-10-08T12:23:29.341Z,35
2022-10-08T12:26:00.252Z,32
2022-10-08T12:28:31.033Z,29
2022-10-08T12:31:02.357Z,27
2022-10-08T12:33:32.712Z,28
2022-10-08T12:36:03.368Z,24
2022-10-08T12:38:40.331Z,20
2022-10-08T12:41:13.405Z,13
2022-10-08T12:43:44.175Z,15
2022-10-08T12:46:14.783Z,17
2022-10-08T12:48:45.887Z,16
2022-10-08T12:51:16.465Z,23
2022-10-08T12:53:46.959Z,16
2022-10-08T12:56:19.108Z,28
2022-10-08T12:58:50.352Z,32
2022-10-08T13:01:23.199Z,19
2022-10-08T13:03:54.628Z,16
2022-10-08T13:06:29.316Z,20
2022-10-08T13:08:58.260Z,20
2022-10-08T13:11:29.049Z,20
2022-10-08T13:14:02.851Z,16
2022-10-08T13:16:34.241Z,16
2022-10-08T13:19:07.193Z,24
2022-10-08T13:21:38.532Z,20
2022-10-08T13:24:09.283Z,16
2022-10-08T13:26:40.108Z,19
2022-10-08T13:29:11.653Z,16
2022-10-08T13:31:43.209Z,20
2022-10-08T13:34:16.751Z,18
2022-10-08T13:36:48.234Z,20
2022-10-08T13:39:21.451Z,19
2022-10-08T13:41:53.671Z,14
2022-10-08T13:44:26.351Z,12
2022-10-08T13:47:01.443Z,19
2022-10-08T13:49:28.471Z,24
2022-10-08T13:51:59.639Z,16
2022-10-08T13:54:30.607Z,17
2022-10-08T13:57:01.194Z,16
2022-10-08T13:59:36.588Z,16
2022-10-08T14:02:07.088Z,24
2022-10-08T14:04:37.240Z,23
2022-10-08T14:07:08.370Z,23
2022-10-08T14:09:38.674Z,18
2022-10-08T14:12:07.799Z,19
2022-10-08T14:14:39.664Z,17
2022-10-08T14:17:15.337Z,17
2022-10-08T14:19:46.877Z,19
2022-10-08T14:22:17.708Z,16
2022-10-08T14:24:52.433Z,20
2022-10-08T14:27:23.931Z,16
2022-10-08T14:29:54.819Z,16
2022-10-08T14:32:28.499Z,24
2022-10-08T14:34:59.664Z,20
2022-10-08T14:37:32.031Z,16
2022-10-08T14:42:36.800Z,16
2022-10-08T14:45:08.571Z,20
2022-10-08T14:47:39.694Z,16
2022-10-08T14:50:10.772Z,12
2022-10-08T14:52:44.013Z,20
2022-10-08T14:55:11.479Z,16
2022-10-08T14:57:42.501Z,13
2022-10-08T15:00:14.260Z,16
2022-10-08T15:02:51.839Z,16
2022-10-08T15:05:23.106Z,16
2022-10-08T15:07:55.943Z,17
2022-10-08T15:10:28.743Z,16
2022-10-08T15:13:00.151Z,21
2022-10-08T15:15:30.748Z,20
2022-10-08T15:18:01.771Z,16
2022-10-08T15:20:38.018Z,16
2022-10-08T15:23:09.611Z,18
2022-10-08T15:25:40.767Z,17
2022-10-08T15:28:13.010Z,20
2022-10-08T15:30:44.372Z,20
2022-10-08T15:33:16.875Z,23
2022-10-08T15:35:47.987Z,21
2022-10-08T15:38:19.287Z,24
2022-10-08T15:40:50.109Z,27
2022-10-08T15:43:21.507Z,32
2022-10-08T15:45:53.779Z,28
2022-10-08T15:48:25.123Z,24
2022-10-08T15:50:57.121Z,27
2022-10-08T15:53:30.879Z,20
2022-10-08T15:56:03.031Z,31
2022-10-08T15:58:49.240Z,24
2022-10-08T16:01:03.012Z,26
2022-10-08T16:03:34.043Z,23
2022-10-08T16:06:05.383Z,24
2022-10-08T16:08:36.835Z,24
2022-10-08T16:11:08.627Z,25
2022-10-08T16:13:39.738Z,26
2022-10-08T16:16:15.249Z,25
2022-10-08T16:18:45.459Z,23
2022-10-08T16:21:16.585Z,25
2022-10-08T16:23:48.145Z,36
2022-10-08T16:26:21.383Z,35
2022-10-08T16:28:53.325Z,36
2022-10-08T16:31:24.620Z,32
2022-10-08T16:33:55.917Z,36
2022-10-08T16:36:27.199Z,36
2022-10-08T16:38:59.066Z,36
2022-10-08T16:41:30.931Z,37
2022-10-08T16:44:06.467Z,37
2022-10-08T16:46:35.889Z,36
2022-10-08T16:49:08.184Z,40
2022-10-08T16:51:39.280Z,40
2022-10-08T16:54:10.365Z,41
2022-10-08T16:56:41.655Z,40
2022-10-08T16:59:18.320Z,41
2022-10-08T17:01:49.200Z,40
2022-10-08T17:04:21.737Z,44
2022-10-08T17:07:00.199Z,48
2022-10-08T17:09:31.886Z,44
2022-10-08T17:12:03.700Z,48
2022-10-08T17:14:34.791Z,44
2022-10-08T17:17:07.212Z,41
2022-10-08T17:19:38.784Z,33
2022-10-08T17:22:10.191Z,32
2022-10-08T17:24:42.425Z,41
2022-10-08T17:27:20.747Z,36
2022-10-08T17:29:51.702Z,32
2022-10-08T17:32:23.195Z,35
2022-10-08T17:34:56.632Z,38
2022-10-08T17:37:29.328Z,39
2022-10-08T17:40:03.851Z,36
2022-10-08T17:42:36.289Z,40
2022-10-08T17:45:10.447Z,39
2022-10-08T17:47:43.758Z,38
2022-10-08T17:50:15.255Z,40
2022-10-08T17:52:45.438Z,40
2022-10-08T17:55:17.133Z,47
2022-10-08T17:57:50.854Z,44
2022-10-08T18:00:21.872Z,43
2022-10-08T18:02:52.985Z,44
2022-10-08T18:05:24.527Z,40
2022-10-08T18:07:55.910Z,44
2022-10-08T18:10:30.464Z,44
2022-10-08T18:13:02.894Z,44
2022-10-08T18:15:35.330Z,44
2022-10-08T18:18:07.641Z,43
2022-10-08T18:20:39.537Z,44
2022-10-08T18:23:10.791Z,45
2022-10-08T18:25:43.267Z,48
2022-10-08T18:28:14.735Z,44
2022-10-08T18:30:48.535Z,40
2022-10-08T18:33:22.788Z,44
2022-10-08T18:35:51.329Z,44
2022-10-08T18:38:22.797Z,49
2022-10-08T18:40:54.013Z,48
2022-10-08T18:43:24.461Z,46
2022-10-08T18:45:56.176Z,52
2022-10-08T18:48:26.193Z,46
2022-10-08T18:50:57.381Z,48
2022-10-08T18:53:29.540Z,48
2022-10-08T18:56:02.382Z,48
2022-10-08T18:58:37.069Z,46
2022-10-08T19:01:08.847Z,49
2022-10-08T19:03:40.360Z,48
2022-10-08T19:06:14.473Z,48
2022-10-08T19:08:45.411Z,44
2022-10-08T19:11:17.150Z,43
2022-10-08T19:13:49.862Z,44
2022-10-08T19:16:22.637Z,44
2022-10-08T19:18:53.455Z,41
2022-10-08T19:21:25.483Z,44
2022-10-08T19:23:57.275Z,44
2022-10-08T19:26:29.781Z,41
2022-10-08T19:29:02.927Z,43
2022-10-08T19:31:34.721Z,41
2022-10-08T19:34:06.343Z,45
2022-10-08T19:36:38.051Z,51
2022-10-08T19:39:09.758Z,44
2022-10-08T19:41:41.040Z,50
2022-10-08T19:44:11.915Z,48
2022-10-08T19:46:43.593Z,48
2022-10-08T19:49:15.697Z,46
2022-10-08T19:51:47.179Z,44
2022-10-08T19:54:18.496Z,45
2022-10-08T19:56:53.914Z,44
2022-10-08T19:59:25.455Z,41
2022-10-08T20:01:58.525Z,44
2022-10-08T20:04:28.304Z,48
2022-10-08T20:07:00.803Z,47
2022-10-08T20:09:32.952Z,48
2022-10-08T20:12:04.118Z,51
2022-10-08T20:14:35.860Z,45
2022-10-08T20:17:07.315Z,44
2022-10-08T20:19:38.867Z,44
2022-10-08T20:22:11.925Z,48
2022-10-08T20:24:41.314Z,44
2022-10-08T20:27:10.818Z,46
2022-10-08T20:29:42.066Z,46
2022-10-08T20:32:14.374Z,44
2022-10-08T20:34:46.604Z,44
2022-10-08T20:37:19.223Z,44
2022-10-08T20:39:51.657Z,48
2022-10-08T20:42:22.919Z,44
2022-10-08T20:44:53.934Z,47
2022-10-08T20:47:25.075Z,48
2022-10-08T20:49:56.388Z,48
2022-10-08T20:52:29.545Z,50
2022-10-08T20:55:01.312Z,48
2022-10-08T20:57:32.576Z,48
2022-10-08T21:00:04.145Z,48
2022-10-08T21:02:37.182Z,48
2022-10-08T21:05:07.787Z,48
2022-10-08T21:07:39.430Z,48
2022-10-08T21:10:10.018Z,47
2022-10-08T21:12:41.164Z,44
2022-10-08T21:15:13.471Z,46
2022-10-08T21:17:46.900Z,48
2022-10-08T21:20:18.633Z,51
2022-10-08T21:22:51.484Z,44
2022-10-08T21:25:24.455Z,51
2022-10-08T21:27:55.601Z,46
2022-10-08T21:30:26.921Z,51
2022-10-08T21:32:58.368Z,48
2022-10-08T21:35:31.767Z,48
2022-10-08T21:38:03.232Z,51
2022-10-08T21:40:39.272Z,52
2022-10-08T21:43:10.603Z,50
2022-10-08T21:45:41.485Z,52
2022-10-08T21:48:11.741Z,48
2022-10-08T21:50:43.107Z,49
2022-10-08T21:53:14.252Z,52
2022-10-08T21:55:46.390Z,49
2022-10-08T21:58:17.483Z,48
2022-10-08T22:00:49.565Z,54
2022-10-08T22:03:20.054Z,51
2022-10-08T22:05:51.382Z,49
2022-10-08T22:08:22.655Z,49
2022-10-08T22:10:53.083Z,47
2022-10-08T22:13:23.625Z,48
2022-10-08T22:15:57.168Z,50
2022-10-08T22:21:00.582Z,48
2022-10-08T22:23:31.211Z,52
2022-10-08T22:26:02.064Z,52
2022-10-08T22:28:33.404Z,52
2022-10-08T22:31:03.982Z,49
2022-10-08T22:33:35.045Z,54
2022-10-08T22:36:11.522Z,49
2022-10-08T22:38:42.230Z,51
2022-10-08T22:41:13.645Z,48
2022-10-08T22:46:21.469Z,53
2022-10-08T22:48:51.746Z,48
2022-10-08T22:51:25.694Z,48
2022-10-08T22:53:57.059Z,49
2022-10-08T22:56:28.279Z,52
2022-10-08T22:59:01.795Z,52
2022-10-08T23:01:32.709Z,51
2022-10-08T23:04:03.485Z,51
2022-10-08T23:06:34.687Z,55
2022-10-08T23:09:06.260Z,48
2022-10-08T23:11:38.728Z,52
2022-10-08T23:14:09.969Z,53
2022-10-08T23:16:40.975Z,49
2022-10-08T23:19:12.311Z,50
2022-10-08T23:21:44.408Z,49
2022-10-08T23:24:13.995Z,53
2022-10-08T23:26:44.808Z,56
2022-10-08T23:29:15.808Z,56
2022-10-08T23:31:46.601Z,52
2022-10-08T23:34:19.202Z,52
2022-10-08T23:36:51.006Z,52
2022-10-08T23:39:21.820Z,52
2022-10-08T23:41:53.210Z,57
2022-10-08T23:44:23.904Z,56
2022-10-08T23:46:55.228Z,56
2022-10-08T23:49:26.137Z,56
2022-10-08T23:51:57.972Z,56
2022-10-08T23:54:27.376Z,56
2022-10-08T23:56:57.012Z,56
2022-10-08T23:59:29.043Z,56
